sensor_id;sensor_type;location;lat;lon;timestamp;P1;durP1;ratioP1;P2;durP2;ratioP2
69358;SDS011;56520;49.066;8.660;2022-12-18T00:01:02;8.32;;;3.88;;
69358;SDS011;56520;49.066;8.660;2022-12-18T00:03:34;7.57;;;3.42;;
69358;SDS011;56520;49.066;8.660;2022-12-18T00:06:00;5.72;;;4.10;;
69358;SDS011;56520;49.066;8.660;2022-12-18T00:08:26;5.45;;;3.03;;
69358;SDS011;56520;49.066;8.660;2022-12-18T00:13:18;7.57;;;3.63;;
69358;SDS011;56520;49.066;8.660;2022-12-18T00:15:43;6.57;;;4.28;;
69358;SDS011;56520;49.066;8.660;2022-12-18T00:18:09;9.48;;;4.13;;
69358;SDS011;56520;49.066;8.660;2022-12-18T00:20:38;6.65;;;3.53;;
69358;SDS011;56520;49.066;8.660;2022-12-18T00:23:04;14.43;;;4.45;;
69358;SDS011;56520;49.066;8.660;2022-12-18T00:27:57;7.35;;;2.97;;
69358;SDS011;56520;49.066;8.660;2022-12-18T00:30:22;9.38;;;4.90;;
69358;SDS011;56520;49.066;8.660;2022-12-18T00:32:48;9.25;;;4.80;;
69358;SDS011;56520;49.066;8.660;2022-12-18T00:35:13;6.30;;;2.95;;
69358;SDS011;56520;49.066;8.660;2022-12-18T00:37:39;10.98;;;5.25;;
69358;SDS011;56520;49.066;8.660;2022-12-18T00:40:04;5.85;;;3.30;;
69358;SDS011;56520;49.066;8.660;2022-12-18T00:42:30;8.98;;;4.28;;
69358;SDS011;56520;49.066;8.660;2022-12-18T00:45:14;8.77;;;2.97;;
69358;SDS011;56520;49.066;8.660;2022-12-18T00:47:39;7.95;;;5.13;;
69358;SDS011;56520;49.066;8.660;2022-12-18T00:50:05;10.60;;;4.55;;
69358;SDS011;56520;49.066;8.660;2022-12-18T00:52:31;8.68;;;4.68;;
69358;SDS011;56520;49.066;8.660;2022-12-18T00:54:56;9.10;;;4.38;;
69358;SDS011;56520;49.066;8.660;2022-12-18T00:57:22;4.85;;;2.92;;
69358;SDS011;56520;49.066;8.660;2022-12-18T00:59:47;7.80;;;2.65;;
69358;SDS011;56520;49.066;8.660;2022-12-18T01:02:13;8.75;;;4.88;;
69358;SDS011;56520;49.066;8.660;2022-12-18T01:04:38;7.15;;;2.63;;
69358;SDS011;56520;49.066;8.660;2022-12-18T01:07:04;16.13;;;4.18;;
69358;SDS011;56520;49.066;8.660;2022-12-18T01:09:29;8.68;;;4.07;;
69358;SDS011;56520;49.066;8.660;2022-12-18T01:11:54;6.20;;;3.15;;
69358;SDS011;56520;49.066;8.660;2022-12-18T01:14:20;7.95;;;4.00;;
69358;SDS011;56520;49.066;8.660;2022-12-18T01:16:45;9.63;;;4.65;;
69358;SDS011;56520;49.066;8.660;2022-12-18T01:19:11;5.88;;;3.08;;
69358;SDS011;56520;49.066;8.660;2022-12-18T01:21:36;6.28;;;3.72;;
69358;SDS011;56520;49.066;8.660;2022-12-18T01:24:02;6.93;;;4.13;;
69358;SDS011;56520;49.066;8.660;2022-12-18T01:26:28;7.70;;;4.50;;
69358;SDS011;56520;49.066;8.660;2022-12-18T01:28:55;5.53;;;2.90;;
69358;SDS011;56520;49.066;8.660;2022-12-18T01:31:28;4.90;;;2.55;;
69358;SDS011;56520;49.066;8.660;2022-12-18T01:33:56;4.65;;;2.08;;
69358;SDS011;56520;49.066;8.660;2022-12-18T01:36:29;6.00;;;3.88;;
69358;SDS011;56520;49.066;8.660;2022-12-18T01:38:58;5.45;;;3.03;;
69358;SDS011;56520;49.066;8.660;2022-12-18T01:41:26;8.85;;;4.35;;
69358;SDS011;56520;49.066;8.660;2022-12-18T01:47:20;7.60;;;2.75;;
69358;SDS011;56520;49.066;8.660;2022-12-18T01:49:51;5.95;;;3.22;;
69358;SDS011;56520;49.066;8.660;2022-12-18T01:52:19;7.13;;;3.65;;
69358;SDS011;56520;49.066;8.660;2022-12-18T01:54:46;7.53;;;4.05;;
69358;SDS011;56520;49.066;8.660;2022-12-18T01:57:13;6.60;;;3.63;;
69358;SDS011;56520;49.066;8.660;2022-12-18T01:59:39;8.05;;;3.85;;
69358;SDS011;56520;49.066;8.660;2022-12-18T02:02:07;6.93;;;3.67;;
69358;SDS011;56520;49.066;8.660;2022-12-18T02:04:33;10.10;;;3.58;;
69358;SDS011;56520;49.066;8.660;2022-12-18T02:09:50;11.98;;;5.40;;
69358;SDS011;56520;49.066;8.660;2022-12-18T02:12:42;13.90;;;4.40;;
69358;SDS011;56520;49.066;8.660;2022-12-18T02:15:26;7.22;;;3.88;;
69358;SDS011;56520;49.066;8.660;2022-12-18T02:18:07;14.35;;;4.53;;
69358;SDS011;56520;49.066;8.660;2022-12-18T02:26:24;8.65;;;3.75;;
69358;SDS011;56520;49.066;8.660;2022-12-18T02:29:09;6.75;;;3.35;;
69358;SDS011;56520;49.066;8.660;2022-12-18T02:31:45;7.03;;;2.97;;
69358;SDS011;56520;49.066;8.660;2022-12-18T02:34:15;7.13;;;3.70;;
69358;SDS011;56520;49.066;8.660;2022-12-18T02:36:43;11.45;;;5.80;;
69358;SDS011;56520;49.066;8.660;2022-12-18T02:39:10;17.02;;;3.30;;
69358;SDS011;56520;49.066;8.660;2022-12-18T02:41:37;9.18;;;4.07;;
69358;SDS011;56520;49.066;8.660;2022-12-18T02:44:07;7.05;;;3.55;;
69358;SDS011;56520;49.066;8.660;2022-12-18T02:46:35;9.32;;;4.93;;
69358;SDS011;56520;49.066;8.660;2022-12-18T02:54:51;7.75;;;2.92;;
69358;SDS011;56520;49.066;8.660;2022-12-18T03:00:13;9.52;;;4.82;;
69358;SDS011;56520;49.066;8.660;2022-12-18T03:05:19;6.00;;;3.10;;
69358;SDS011;56520;49.066;8.660;2022-12-18T03:07:50;11.20;;;5.78;;
69358;SDS011;56520;49.066;8.660;2022-12-18T03:10:38;9.45;;;4.18;;
69358;SDS011;56520;49.066;8.660;2022-12-18T03:13:14;6.38;;;3.35;;
69358;SDS011;56520;49.066;8.660;2022-12-18T03:15:47;10.40;;;4.45;;
69358;SDS011;56520;49.066;8.660;2022-12-18T03:18:18;9.30;;;4.82;;
69358;SDS011;56520;49.066;8.660;2022-12-18T03:20:48;5.63;;;3.05;;
69358;SDS011;56520;49.066;8.660;2022-12-18T03:23:17;7.28;;;3.88;;
69358;SDS011;56520;49.066;8.660;2022-12-18T03:25:47;9.82;;;5.57;;
69358;SDS011;56520;49.066;8.660;2022-12-18T03:28:18;6.63;;;3.83;;
69358;SDS011;56520;49.066;8.660;2022-12-18T03:30:46;7.40;;;3.45;;
69358;SDS011;56520;49.066;8.660;2022-12-18T03:33:19;7.72;;;4.00;;
69358;SDS011;56520;49.066;8.660;2022-12-18T03:35:50;8.85;;;5.03;;
69358;SDS011;56520;49.066;8.660;2022-12-18T03:38:16;8.32;;;3.65;;
69358;SDS011;56520;49.066;8.660;2022-12-18T03:46:07;8.00;;;3.28;;
69358;SDS011;56520;49.066;8.660;2022-12-18T03:48:43;5.53;;;2.45;;
69358;SDS011;56520;49.066;8.660;2022-12-18T03:51:23;7.90;;;3.63;;
69358;SDS011;56520;49.066;8.660;2022-12-18T03:53:57;6.50;;;3.65;;
69358;SDS011;56520;49.066;8.660;2022-12-18T03:56:26;9.73;;;4.55;;
69358;SDS011;56520;49.066;8.660;2022-12-18T03:58:54;7.97;;;3.65;;
69358;SDS011;56520;49.066;8.660;2022-12-18T04:01:23;7.18;;;3.95;;
69358;SDS011;56520;49.066;8.660;2022-12-18T04:03:53;6.45;;;2.72;;
69358;SDS011;56520;49.066;8.660;2022-12-18T04:06:19;7.82;;;3.97;;
69358;SDS011;56520;49.066;8.660;2022-12-18T04:08:46;11.02;;;4.63;;
69358;SDS011;56520;49.066;8.660;2022-12-18T04:11:12;11.82;;;3.63;;
69358;SDS011;56520;49.066;8.660;2022-12-18T04:13:37;5.97;;;3.35;;
69358;SDS011;56520;49.066;8.660;2022-12-18T04:16:03;4.97;;;2.75;;
69358;SDS011;56520;49.066;8.660;2022-12-18T04:18:30;8.70;;;2.97;;
69358;SDS011;56520;49.066;8.660;2022-12-18T04:20:55;6.70;;;4.07;;
69358;SDS011;56520;49.066;8.660;2022-12-18T04:23:21;8.98;;;4.18;;
69358;SDS011;56520;49.066;8.660;2022-12-18T04:25:46;13.98;;;4.38;;
69358;SDS011;56520;49.066;8.660;2022-12-18T04:28:12;12.75;;;4.80;;
69358;SDS011;56520;49.066;8.660;2022-12-18T04:30:38;7.45;;;3.97;;
69358;SDS011;56520;49.066;8.660;2022-12-18T04:33:07;6.57;;;3.00;;
69358;SDS011;56520;49.066;8.660;2022-12-18T04:35:34;9.07;;;3.05;;
69358;SDS011;56520;49.066;8.660;2022-12-18T04:38:00;5.18;;;2.75;;
69358;SDS011;56520;49.066;8.660;2022-12-18T04:40:25;6.38;;;3.47;;
69358;SDS011;56520;49.066;8.660;2022-12-18T04:42:50;7.05;;;3.45;;
69358;SDS011;56520;49.066;8.660;2022-12-18T04:45:16;7.68;;;4.70;;
69358;SDS011;56520;49.066;8.660;2022-12-18T04:47:41;7.20;;;4.07;;
69358;SDS011;56520;49.066;8.660;2022-12-18T04:50:07;8.55;;;4.95;;
69358;SDS011;56520;49.066;8.660;2022-12-18T04:52:32;4.53;;;2.90;;
69358;SDS011;56520;49.066;8.660;2022-12-18T04:54:58;7.82;;;3.40;;
69358;SDS011;56520;49.066;8.660;2022-12-18T04:57:23;6.93;;;3.00;;
69358;SDS011;56520;49.066;8.660;2022-12-18T04:59:49;8.02;;;3.92;;
69358;SDS011;56520;49.066;8.660;2022-12-18T05:02:14;7.32;;;2.22;;
69358;SDS011;56520;49.066;8.660;2022-12-18T05:04:39;6.97;;;4.28;;
69358;SDS011;56520;49.066;8.660;2022-12-18T05:07:05;15.20;;;3.05;;
69358;SDS011;56520;49.066;8.660;2022-12-18T05:09:30;7.35;;;3.00;;
69358;SDS011;56520;49.066;8.660;2022-12-18T05:11:56;3.90;;;2.33;;
69358;SDS011;56520;49.066;8.660;2022-12-18T05:14:21;7.53;;;3.13;;
69358;SDS011;56520;49.066;8.660;2022-12-18T05:16:46;8.93;;;4.53;;
69358;SDS011;56520;49.066;8.660;2022-12-18T05:19:12;6.10;;;3.28;;
69358;SDS011;56520;49.066;8.660;2022-12-18T05:21:37;5.97;;;3.33;;
69358;SDS011;56520;49.066;8.660;2022-12-18T05:24:03;5.90;;;3.17;;
69358;SDS011;56520;49.066;8.660;2022-12-18T05:26:28;7.40;;;3.40;;
69358;SDS011;56520;49.066;8.660;2022-12-18T05:28:56;5.95;;;2.67;;
69358;SDS011;56520;49.066;8.660;2022-12-18T05:31:22;5.45;;;2.35;;
69358;SDS011;56520;49.066;8.660;2022-12-18T05:33:50;8.15;;;4.22;;
69358;SDS011;56520;49.066;8.660;2022-12-18T05:36:16;5.00;;;2.78;;
69358;SDS011;56520;49.066;8.660;2022-12-18T05:38:41;8.02;;;3.50;;
69358;SDS011;56520;49.066;8.660;2022-12-18T05:41:07;8.63;;;4.32;;
69358;SDS011;56520;49.066;8.660;2022-12-18T05:46:03;5.78;;;2.53;;
69358;SDS011;56520;49.066;8.660;2022-12-18T05:48:32;9.18;;;4.15;;
69358;SDS011;56520;49.066;8.660;2022-12-18T05:51:02;6.90;;;3.80;;
69358;SDS011;56520;49.066;8.660;2022-12-18T05:53:29;3.38;;;1.92;;
69358;SDS011;56520;49.066;8.660;2022-12-18T05:55:59;4.80;;;2.22;;
69358;SDS011;56520;49.066;8.660;2022-12-18T05:58:25;7.72;;;4.10;;
69358;SDS011;56520;49.066;8.660;2022-12-18T06:00:50;15.98;;;4.03;;
69358;SDS011;56520;49.066;8.660;2022-12-18T06:03:16;5.18;;;2.83;;
69358;SDS011;56520;49.066;8.660;2022-12-18T06:05:42;5.07;;;3.22;;
69358;SDS011;56520;49.066;8.660;2022-12-18T06:08:09;5.60;;;3.00;;
69358;SDS011;56520;49.066;8.660;2022-12-18T06:10:35;4.85;;;2.85;;
69358;SDS011;56520;49.066;8.660;2022-12-18T06:13:01;8.68;;;2.72;;
69358;SDS011;56520;49.066;8.660;2022-12-18T06:15:27;5.07;;;2.40;;
69358;SDS011;56520;49.066;8.660;2022-12-18T06:17:52;5.50;;;3.38;;
69358;SDS011;56520;49.066;8.660;2022-12-18T06:20:18;3.50;;;1.95;;
69358;SDS011;56520;49.066;8.660;2022-12-18T06:22:43;5.07;;;2.78;;
69358;SDS011;56520;49.066;8.660;2022-12-18T06:25:09;4.50;;;2.72;;
69358;SDS011;56520;49.066;8.660;2022-12-18T06:27:34;3.83;;;2.15;;
69358;SDS011;56520;49.066;8.660;2022-12-18T06:30:00;7.93;;;2.60;;
69358;SDS011;56520;49.066;8.660;2022-12-18T06:32:26;5.88;;;2.65;;
69358;SDS011;56520;49.066;8.660;2022-12-18T06:34:51;5.05;;;2.63;;
69358;SDS011;56520;49.066;8.660;2022-12-18T06:37:17;4.85;;;2.35;;
69358;SDS011;56520;49.066;8.660;2022-12-18T06:39:43;3.85;;;2.00;;
69358;SDS011;56520;49.066;8.660;2022-12-18T06:42:08;7.20;;;4.20;;
69358;SDS011;56520;49.066;8.660;2022-12-18T06:44:34;10.20;;;3.15;;
69358;SDS011;56520;49.066;8.660;2022-12-18T06:46:59;5.57;;;2.67;;
69358;SDS011;56520;49.066;8.660;2022-12-18T06:49:24;7.90;;;3.42;;
69358;SDS011;56520;49.066;8.660;2022-12-18T06:51:50;6.43;;;3.25;;
69358;SDS011;56520;49.066;8.660;2022-12-18T06:54:15;5.53;;;2.95;;
69358;SDS011;56520;49.066;8.660;2022-12-18T06:56:41;8.60;;;3.65;;
69358;SDS011;56520;49.066;8.660;2022-12-18T06:59:06;9.52;;;2.97;;
69358;SDS011;56520;49.066;8.660;2022-12-18T07:01:32;3.85;;;2.20;;
69358;SDS011;56520;49.066;8.660;2022-12-18T07:03:57;5.10;;;2.55;;
69358;SDS011;56520;49.066;8.660;2022-12-18T07:06:24;3.72;;;2.08;;
69358;SDS011;56520;49.066;8.660;2022-12-18T07:08:50;3.22;;;1.55;;
69358;SDS011;56520;49.066;8.660;2022-12-18T07:11:17;3.63;;;2.42;;
69358;SDS011;56520;49.066;8.660;2022-12-18T07:13:43;6.00;;;1.98;;
69358;SDS011;56520;49.066;8.660;2022-12-18T07:16:09;3.38;;;1.75;;
69358;SDS011;56520;49.066;8.660;2022-12-18T07:18:42;4.57;;;2.13;;
69358;SDS011;56520;49.066;8.660;2022-12-18T07:21:09;4.68;;;2.22;;
69358;SDS011;56520;49.066;8.660;2022-12-18T07:23:37;6.20;;;3.25;;
69358;SDS011;56520;49.066;8.660;2022-12-18T07:26:06;4.18;;;2.03;;
69358;SDS011;56520;49.066;8.660;2022-12-18T07:28:34;5.13;;;2.83;;
69358;SDS011;56520;49.066;8.660;2022-12-18T07:31:03;4.53;;;2.50;;
69358;SDS011;56520;49.066;8.660;2022-12-18T07:33:31;5.55;;;2.70;;
69358;SDS011;56520;49.066;8.660;2022-12-18T07:38:28;4.03;;;2.83;;
69358;SDS011;56520;49.066;8.660;2022-12-18T07:40:53;3.60;;;1.77;;
69358;SDS011;56520;49.066;8.660;2022-12-18T07:43:19;6.43;;;2.78;;
69358;SDS011;56520;49.066;8.660;2022-12-18T07:45:44;5.63;;;3.47;;
69358;SDS011;56520;49.066;8.660;2022-12-18T07:48:09;6.63;;;2.90;;
69358;SDS011;56520;49.066;8.660;2022-12-18T07:50:35;4.93;;;2.92;;
69358;SDS011;56520;49.066;8.660;2022-12-18T07:53:00;6.22;;;3.22;;
69358;SDS011;56520;49.066;8.660;2022-12-18T07:55:30;7.43;;;3.50;;
69358;SDS011;56520;49.066;8.660;2022-12-18T08:00:21;8.60;;;2.27;;
69358;SDS011;56520;49.066;8.660;2022-12-18T08:02:47;6.47;;;2.75;;
69358;SDS011;56520;49.066;8.660;2022-12-18T08:05:12;4.78;;;2.85;;
69358;SDS011;56520;49.066;8.660;2022-12-18T08:07:38;6.30;;;3.20;;
69358;SDS011;56520;49.066;8.660;2022-12-18T08:10:04;7.30;;;3.30;;
69358;SDS011;56520;49.066;8.660;2022-12-18T08:12:30;6.10;;;2.58;;
69358;SDS011;56520;49.066;8.660;2022-12-18T08:14:55;4.32;;;2.13;;
69358;SDS011;56520;49.066;8.660;2022-12-18T08:17:20;9.15;;;3.78;;
69358;SDS011;56520;49.066;8.660;2022-12-18T08:19:46;5.55;;;2.15;;
69358;SDS011;56520;49.066;8.660;2022-12-18T08:22:11;8.52;;;3.15;;
69358;SDS011;56520;49.066;8.660;2022-12-18T08:24:37;8.93;;;3.72;;
69358;SDS011;56520;49.066;8.660;2022-12-18T08:27:02;7.68;;;2.67;;
69358;SDS011;56520;49.066;8.660;2022-12-18T08:29:27;8.35;;;3.08;;
69358;SDS011;56520;49.066;8.660;2022-12-18T08:31:53;7.22;;;2.83;;
69358;SDS011;56520;49.066;8.660;2022-12-18T08:34:18;11.55;;;5.20;;
69358;SDS011;56520;49.066;8.660;2022-12-18T08:36:44;12.15;;;5.38;;
69358;SDS011;56520;49.066;8.660;2022-12-18T08:39:09;19.50;;;5.90;;
69358;SDS011;56520;49.066;8.660;2022-12-18T08:41:35;14.73;;;6.10;;
69358;SDS011;56520;49.066;8.660;2022-12-18T08:44:00;14.30;;;5.90;;
69358;SDS011;56520;49.066;8.660;2022-12-18T08:46:44;14.23;;;5.82;;
69358;SDS011;56520;49.066;8.660;2022-12-18T08:49:11;11.93;;;5.00;;
69358;SDS011;56520;49.066;8.660;2022-12-18T08:51:36;12.93;;;5.90;;
69358;SDS011;56520;49.066;8.660;2022-12-18T08:54:02;14.25;;;6.15;;
69358;SDS011;56520;49.066;8.660;2022-12-18T08:56:28;17.25;;;7.03;;
69358;SDS011;56520;49.066;8.660;2022-12-18T09:01:20;12.03;;;4.73;;
69358;SDS011;56520;49.066;8.660;2022-12-18T09:06:13;12.03;;;5.93;;
69358;SDS011;56520;49.066;8.660;2022-12-18T09:08:40;10.93;;;5.80;;
69358;SDS011;56520;49.066;8.660;2022-12-18T09:13:36;11.77;;;5.75;;
69358;SDS011;56520;49.066;8.660;2022-12-18T09:18:28;14.43;;;5.68;;
69358;SDS011;56520;49.066;8.660;2022-12-18T09:23:18;13.77;;;5.17;;
69358;SDS011;56520;49.066;8.660;2022-12-18T09:25:44;14.70;;;6.45;;
69358;SDS011;56520;49.066;8.660;2022-12-18T09:30:44;14.48;;;4.70;;
69358;SDS011;56520;49.066;8.660;2022-12-18T09:33:11;12.68;;;5.70;;
69358;SDS011;56520;49.066;8.660;2022-12-18T09:38:06;11.48;;;4.80;;
69358;SDS011;56520;49.066;8.660;2022-12-18T09:40:39;13.43;;;6.75;;
69358;SDS011;56520;49.066;8.660;2022-12-18T09:43:11;18.20;;;7.20;;
69358;SDS011;56520;49.066;8.660;2022-12-18T09:45:43;17.02;;;6.88;;
69358;SDS011;56520;49.066;8.660;2022-12-18T09:48:14;14.93;;;6.72;;
69358;SDS011;56520;49.066;8.660;2022-12-18T09:50:45;13.90;;;6.80;;
69358;SDS011;56520;49.066;8.660;2022-12-18T09:53:14;13.60;;;6.28;;
69358;SDS011;56520;49.066;8.660;2022-12-18T09:55:45;13.02;;;6.82;;
69358;SDS011;56520;49.066;8.660;2022-12-18T10:00:55;19.20;;;7.55;;
69358;SDS011;56520;49.066;8.660;2022-12-18T10:14:40;16.17;;;6.13;;
69358;SDS011;56520;49.066;8.660;2022-12-18T10:17:41;9.40;;;4.43;;
69358;SDS011;56520;49.066;8.660;2022-12-18T10:20:29;10.25;;;4.82;;
69358;SDS011;56520;49.066;8.660;2022-12-18T10:25:28;16.17;;;6.27;;
69358;SDS011;56520;49.066;8.660;2022-12-18T10:27:57;12.25;;;5.10;;
69358;SDS011;56520;49.066;8.660;2022-12-18T10:30:31;16.23;;;5.55;;
69358;SDS011;56520;49.066;8.660;2022-12-18T10:33:00;12.75;;;6.15;;
69358;SDS011;56520;49.066;8.660;2022-12-18T10:35:26;13.02;;;5.65;;
69358;SDS011;56520;49.066;8.660;2022-12-18T10:37:59;13.75;;;4.53;;
69358;SDS011;56520;49.066;8.660;2022-12-18T10:40:25;15.95;;;5.95;;
69358;SDS011;56520;49.066;8.660;2022-12-18T10:48:39;8.75;;;4.88;;
69358;SDS011;56520;49.066;8.660;2022-12-18T10:51:11;13.13;;;5.13;;
69358;SDS011;56520;49.066;8.660;2022-12-18T10:53:50;12.93;;;5.00;;
69358;SDS011;56520;49.066;8.660;2022-12-18T10:56:21;14.55;;;5.50;;
69358;SDS011;56520;49.066;8.660;2022-12-18T10:58:55;12.70;;;6.00;;
69358;SDS011;56520;49.066;8.660;2022-12-18T11:06:53;12.10;;;5.20;;
69358;SDS011;56520;49.066;8.660;2022-12-18T11:09:23;8.82;;;4.05;;
69358;SDS011;56520;49.066;8.660;2022-12-18T11:11:51;13.98;;;6.18;;
69358;SDS011;56520;49.066;8.660;2022-12-18T11:14:22;9.75;;;4.55;;
69358;SDS011;56520;49.066;8.660;2022-12-18T11:16:51;12.02;;;5.25;;
69358;SDS011;56520;49.066;8.660;2022-12-18T11:22:01;11.57;;;5.35;;
69358;SDS011;56520;49.066;8.660;2022-12-18T11:24:41;16.23;;;5.75;;
69358;SDS011;56520;49.066;8.660;2022-12-18T11:27:13;14.95;;;6.68;;
69358;SDS011;56520;49.066;8.660;2022-12-18T11:29:42;12.15;;;5.38;;
69358;SDS011;56520;49.066;8.660;2022-12-18T11:34:39;18.15;;;6.60;;
69358;SDS011;56520;49.066;8.660;2022-12-18T11:37:11;12.65;;;4.82;;
69358;SDS011;56520;49.066;8.660;2022-12-18T11:42:32;14.60;;;5.70;;
69358;SDS011;56520;49.066;8.660;2022-12-18T11:50:13;11.52;;;5.10;;
69358;SDS011;56520;49.066;8.660;2022-12-18T11:52:44;11.77;;;4.88;;
69358;SDS011;56520;49.066;8.660;2022-12-18T11:57:47;11.18;;;4.68;;
69358;SDS011;56520;49.066;8.660;2022-12-18T12:00:19;12.77;;;5.25;;
69358;SDS011;56520;49.066;8.660;2022-12-18T12:11:02;12.77;;;5.55;;
69358;SDS011;56520;49.066;8.660;2022-12-18T12:16:29;15.38;;;5.85;;
69358;SDS011;56520;49.066;8.660;2022-12-18T12:21:47;11.75;;;5.10;;
69358;SDS011;56520;49.066;8.660;2022-12-18T12:30:08;9.93;;;4.50;;
69358;SDS011;56520;49.066;8.660;2022-12-18T12:38:19;10.95;;;4.18;;
69358;SDS011;56520;49.066;8.660;2022-12-18T12:41:04;11.55;;;4.78;;
69358;SDS011;56520;49.066;8.660;2022-12-18T12:43:53;12.82;;;5.10;;
69358;SDS011;56520;49.066;8.660;2022-12-18T12:46:21;10.88;;;5.60;;
69358;SDS011;56520;49.066;8.660;2022-12-18T12:48:55;10.95;;;4.93;;
69358;SDS011;56520;49.066;8.660;2022-12-18T12:51:26;12.05;;;5.40;;
69358;SDS011;56520;49.066;8.660;2022-12-18T12:53:55;16.75;;;5.38;;
69358;SDS011;56520;49.066;8.660;2022-12-18T12:56:32;12.07;;;6.18;;
69358;SDS011;56520;49.066;8.660;2022-12-18T12:59:16;13.93;;;6.30;;
69358;SDS011;56520;49.066;8.660;2022-12-18T13:01:58;16.35;;;6.20;;
69358;SDS011;56520;49.066;8.660;2022-12-18T13:04:38;14.00;;;6.30;;
69358;SDS011;56520;49.066;8.660;2022-12-18T13:13:18;14.45;;;4.38;;
69358;SDS011;56520;49.066;8.660;2022-12-18T13:15:41;11.25;;;4.65;;
69358;SDS011;56520;49.066;8.660;2022-12-18T13:20:40;13.88;;;5.95;;
69358;SDS011;56520;49.066;8.660;2022-12-18T13:25:48;16.40;;;5.97;;
69358;SDS011;56520;49.066;8.660;2022-12-18T13:28:15;10.70;;;5.10;;
69358;SDS011;56520;49.066;8.660;2022-12-18T13:30:43;13.02;;;6.47;;
69358;SDS011;56520;49.066;8.660;2022-12-18T13:35:39;14.25;;;4.47;;
69358;SDS011;56520;49.066;8.660;2022-12-18T13:38:20;17.73;;;7.18;;
69358;SDS011;56520;49.066;8.660;2022-12-18T13:43:24;13.85;;;5.05;;
69358;SDS011;56520;49.066;8.660;2022-12-18T13:46:16;13.27;;;4.60;;
69358;SDS011;56520;49.066;8.660;2022-12-18T13:48:47;13.98;;;5.00;;
69358;SDS011;56520;49.066;8.660;2022-12-18T13:51:17;12.48;;;5.30;;
69358;SDS011;56520;49.066;8.660;2022-12-18T13:53:44;10.57;;;4.65;;
69358;SDS011;56520;49.066;8.660;2022-12-18T13:56:24;14.00;;;5.35;;
69358;SDS011;56520;49.066;8.660;2022-12-18T13:59:05;10.48;;;5.35;;
69358;SDS011;56520;49.066;8.660;2022-12-18T14:01:33;15.38;;;5.90;;
69358;SDS011;56520;49.066;8.660;2022-12-18T14:07:05;12.15;;;5.55;;
69358;SDS011;56520;49.066;8.660;2022-12-18T14:09:36;10.00;;;5.10;;
69358;SDS011;56520;49.066;8.660;2022-12-18T14:12:06;15.95;;;5.30;;
69358;SDS011;56520;49.066;8.660;2022-12-18T14:14:57;12.55;;;5.03;;
69358;SDS011;56520;49.066;8.660;2022-12-18T14:17:23;11.70;;;4.80;;
69358;SDS011;56520;49.066;8.660;2022-12-18T14:19:49;11.90;;;4.32;;
69358;SDS011;56520;49.066;8.660;2022-12-18T14:22:17;18.67;;;5.50;;
69358;SDS011;56520;49.066;8.660;2022-12-18T14:25:10;11.38;;;5.15;;
69358;SDS011;56520;49.066;8.660;2022-12-18T14:27:42;13.00;;;4.65;;
69358;SDS011;56520;49.066;8.660;2022-12-18T14:35:27;11.77;;;4.88;;
69358;SDS011;56520;49.066;8.660;2022-12-18T14:37:53;15.90;;;5.07;;
69358;SDS011;56520;49.066;8.660;2022-12-18T14:40:18;12.00;;;5.97;;
69358;SDS011;56520;49.066;8.660;2022-12-18T14:42:44;13.85;;;4.47;;
69358;SDS011;56520;49.066;8.660;2022-12-18T14:48:20;12.40;;;4.65;;
69358;SDS011;56520;49.066;8.660;2022-12-18T14:51:14;20.35;;;5.47;;
69358;SDS011;56520;49.066;8.660;2022-12-18T14:53:48;28.85;;;5.57;;
69358;SDS011;56520;49.066;8.660;2022-12-18T14:56:22;8.25;;;4.15;;
69358;SDS011;56520;49.066;8.660;2022-12-18T14:58:55;7.00;;;4.00;;
69358;SDS011;56520;49.066;8.660;2022-12-18T15:01:45;13.75;;;5.63;;
69358;SDS011;56520;49.066;8.660;2022-12-18T15:04:24;9.98;;;5.30;;
69358;SDS011;56520;49.066;8.660;2022-12-18T15:07:19;10.82;;;3.88;;
69358;SDS011;56520;49.066;8.660;2022-12-18T15:13:16;13.90;;;5.85;;
69358;SDS011;56520;49.066;8.660;2022-12-18T15:15:47;12.52;;;5.53;;
69358;SDS011;56520;49.066;8.660;2022-12-18T15:18:15;7.32;;;3.97;;
69358;SDS011;56520;49.066;8.660;2022-12-18T15:20:43;11.85;;;5.45;;
69358;SDS011;56520;49.066;8.660;2022-12-18T15:23:14;8.50;;;3.80;;
69358;SDS011;56520;49.066;8.660;2022-12-18T15:28:32;15.43;;;4.93;;
69358;SDS011;56520;49.066;8.660;2022-12-18T15:31:30;10.10;;;5.00;;
69358;SDS011;56520;49.066;8.660;2022-12-18T15:36:23;10.48;;;4.13;;
69358;SDS011;56520;49.066;8.660;2022-12-18T15:38:49;10.45;;;3.85;;
69358;SDS011;56520;49.066;8.660;2022-12-18T15:41:16;18.92;;;6.25;;
69358;SDS011;56520;49.066;8.660;2022-12-18T15:43:43;12.25;;;4.60;;
69358;SDS011;56520;49.066;8.660;2022-12-18T15:46:13;15.32;;;5.28;;
69358;SDS011;56520;49.066;8.660;2022-12-18T15:48:42;11.45;;;5.00;;
69358;SDS011;56520;49.066;8.660;2022-12-18T15:51:51;8.95;;;4.45;;
69358;SDS011;56520;49.066;8.660;2022-12-18T15:54:11;13.77;;;4.80;;
69358;SDS011;56520;49.066;8.660;2022-12-18T15:56:40;10.18;;;4.22;;
69358;SDS011;56520;49.066;8.660;2022-12-18T15:59:25;11.60;;;3.92;;
69358;SDS011;56520;49.066;8.660;2022-12-18T16:01:51;14.50;;;4.35;;
69358;SDS011;56520;49.066;8.660;2022-12-18T16:04:20;10.77;;;5.07;;
69358;SDS011;56520;49.066;8.660;2022-12-18T16:06:47;10.55;;;3.58;;
69358;SDS011;56520;49.066;8.660;2022-12-18T16:11:39;8.30;;;4.30;;
69358;SDS011;56520;49.066;8.660;2022-12-18T16:16:43;10.48;;;4.35;;
69358;SDS011;56520;49.066;8.660;2022-12-18T16:19:18;10.27;;;4.30;;
69358;SDS011;56520;49.066;8.660;2022-12-18T16:21:43;10.55;;;3.88;;
69358;SDS011;56520;49.066;8.660;2022-12-18T16:24:16;12.35;;;5.50;;
69358;SDS011;56520;49.066;8.660;2022-12-18T16:26:42;17.05;;;4.25;;
69358;SDS011;56520;49.066;8.660;2022-12-18T16:29:09;9.18;;;4.90;;
69358;SDS011;56520;49.066;8.660;2022-12-18T16:31:35;11.52;;;5.45;;
69358;SDS011;56520;49.066;8.660;2022-12-18T16:37:03;19.17;;;5.00;;
69358;SDS011;56520;49.066;8.660;2022-12-18T16:39:30;11.95;;;5.05;;
69358;SDS011;56520;49.066;8.660;2022-12-18T16:41:56;10.18;;;4.30;;
69358;SDS011;56520;49.066;8.660;2022-12-18T16:44:22;16.77;;;6.05;;
69358;SDS011;56520;49.066;8.660;2022-12-18T16:46:47;10.82;;;4.65;;
69358;SDS011;56520;49.066;8.660;2022-12-18T16:49:14;8.20;;;4.13;;
69358;SDS011;56520;49.066;8.660;2022-12-18T16:51:40;10.18;;;4.97;;
69358;SDS011;56520;49.066;8.660;2022-12-18T16:54:06;10.15;;;4.20;;
69358;SDS011;56520;49.066;8.660;2022-12-18T16:56:32;12.93;;;3.90;;
69358;SDS011;56520;49.066;8.660;2022-12-18T16:58:59;18.20;;;6.38;;
69358;SDS011;56520;49.066;8.660;2022-12-18T17:01:26;15.85;;;6.45;;
69358;SDS011;56520;49.066;8.660;2022-12-18T17:06:23;11.63;;;4.80;;
69358;SDS011;56520;49.066;8.660;2022-12-18T17:08:56;11.90;;;4.65;;
69358;SDS011;56520;49.066;8.660;2022-12-18T17:11:28;13.77;;;4.97;;
69358;SDS011;56520;49.066;8.660;2022-12-18T17:13:55;13.10;;;5.05;;
69358;SDS011;56520;49.066;8.660;2022-12-18T17:16:21;9.30;;;4.15;;
69358;SDS011;56520;49.066;8.660;2022-12-18T17:18:47;12.18;;;4.80;;
69358;SDS011;56520;49.066;8.660;2022-12-18T17:21:13;10.77;;;5.75;;
69358;SDS011;56520;49.066;8.660;2022-12-18T17:23:41;12.75;;;5.57;;
69358;SDS011;56520;49.066;8.660;2022-12-18T17:26:07;12.98;;;5.68;;
69358;SDS011;56520;49.066;8.660;2022-12-18T17:28:34;9.20;;;5.22;;
69358;SDS011;56520;49.066;8.660;2022-12-18T17:31:01;15.13;;;5.80;;
69358;SDS011;56520;49.066;8.660;2022-12-18T17:33:34;12.88;;;5.38;;
69358;SDS011;56520;49.066;8.660;2022-12-18T17:35:59;12.40;;;4.88;;
69358;SDS011;56520;49.066;8.660;2022-12-18T17:38:25;8.15;;;4.15;;
69358;SDS011;56520;49.066;8.660;2022-12-18T17:40:51;9.95;;;4.22;;
69358;SDS011;56520;49.066;8.660;2022-12-18T17:43:17;13.88;;;5.88;;
69358;SDS011;56520;49.066;8.660;2022-12-18T17:45:42;13.88;;;4.07;;